Aeroporto :
LOGIN :

Iscrizione | Disclaimer

   EN    FR    IT 

 










Sommario :    VFR   VFR Marginale   IFR   IFR Intensivo   IFR Molto Intensivo
Visibilità : 
Base nubi : 
>= 8 km
>= 3000ft
5 / 8 km
1000 / 3000 ft
1500m / 5 km
500 / 1000 ft
800 / 1500m
200 / 500 ft
< 800m
< 200 ft
Simboli :   Temporali  Nebbia  Neve Forte  Precipitazioni Forti  Vento > 20 kt
SIGMETs :   Varie  Temporali  Ghiacco  Turbolenza  Onda orograficha  Ceneri Vulcaniche







- Altitudine del aeroporto : 794 ft


LKCV - Čáslav Air Base

ULTIMO METAR :
  • 141700Z 30011KT CAVOK 25/12 Q1012 NOSIG

METARs OBSOLETI :
  • 141600Z 27007KT 240V300 CAVOK 26/12 Q1012 NOSIG RMK BLU BLU
  • 141500Z 26008KT CAVOK 25/12 Q1012 NOSIG

TAF TAF LKCV
Valido dal 14 a 12 ore il 15 a 12 ore UTC


141100Z 1412/1512 26006KT 9999 BKN035
PROB30
TEMPO 1412/1416 7000 SHRA SCT030TCU BKN040
BECMG 1508/1510 32008KT
Nessun NOTAM noto per questo aeroporto.



MetMap, La meteo Aeronautica in un colpo d'occhio ! - Copyright ORBIFLY Dicembre 2007 - Disclaimer

ORBIFLY MET'MAP TEAM :

Programmazione e sviluppo : Alexandra Zaïnal
Concezione e sviluppo : Baudouin d'Aumeries
Co-Programmazione e sviluppo : Marc-Olivier Méhu
Supporto tecnico e logistico : Manuel Goepfert
Aiuto per la traduzione : Arnaldo La Scala

Contatto : metmap@orbifly.com




FONTI E CREDITI :

   NOAA